createdAt,value
2017-09-23T00:00:57.926Z,9.90
2017-09-23T00:03:25.415Z,10.67
2017-09-23T00:05:52.887Z,11.40
2017-09-23T00:08:20.342Z,9.90
2017-09-23T00:10:47.803Z,11.00
2017-09-23T00:13:15.686Z,9.53
2017-09-23T00:15:43.555Z,9.97
2017-09-23T00:18:11.410Z,10.27
2017-09-23T00:20:39.295Z,10.67
2017-09-23T00:23:06.760Z,10.50
2017-09-23T00:25:34.216Z,10.30
2017-09-23T00:28:01.696Z,11.03
2017-09-23T00:30:29.170Z,12.37
2017-09-23T00:32:56.639Z,10.90
2017-09-23T00:35:24.895Z,12.10
2017-09-23T00:37:52.374Z,11.10
2017-09-23T00:40:20.239Z,11.00
2017-09-23T00:42:48.390Z,11.77
2017-09-23T00:45:15.850Z,12.40
2017-09-23T00:47:43.302Z,12.00
2017-09-23T00:50:10.774Z,11.80
2017-09-23T00:52:38.635Z,10.70
2017-09-23T00:55:06.495Z,12.57
2017-09-23T00:57:34.375Z,11.60
2017-09-23T01:00:02.227Z,10.80
2017-09-23T01:02:29.759Z,12.23
2017-09-23T01:04:57.438Z,11.60
2017-09-23T01:07:24.891Z,11.20
2017-09-23T01:09:52.352Z,12.00
2017-09-23T01:12:20.211Z,11.50
2017-09-23T01:14:47.668Z,10.70
2017-09-23T01:17:15.126Z,12.00
2017-09-23T01:19:42.614Z,11.57
2017-09-23T01:22:10.070Z,11.50
2017-09-23T01:24:37.528Z,11.40
2017-09-23T01:27:05.010Z,11.60
2017-09-23T01:29:32.462Z,11.90
2017-09-23T01:32:00.732Z,13.83
2017-09-23T01:34:28.531Z,12.00
2017-09-23T01:36:55.996Z,12.50
2017-09-23T01:39:23.452Z,11.70
2017-09-23T01:41:50.944Z,12.40
2017-09-23T01:44:18.386Z,11.67
2017-09-23T01:46:46.241Z,11.97
2017-09-23T01:49:14.287Z,12.23
2017-09-23T01:51:41.747Z,12.60
2017-09-23T01:54:09.198Z,10.87
2017-09-23T01:56:36.654Z,11.37
2017-09-23T01:59:04.115Z,17.93
2017-09-23T02:01:31.607Z,14.20
2017-09-23T02:03:59.076Z,14.40
2017-09-23T02:06:26.531Z,12.37
2017-09-23T02:08:54.236Z,12.30
2017-09-23T02:11:21.686Z,11.70
2017-09-23T02:13:49.153Z,11.30
2017-09-23T02:16:16.657Z,12.70
2017-09-23T02:18:44.122Z,11.63
2017-09-23T02:21:11.589Z,10.87
2017-09-23T02:23:39.366Z,10.90
2017-09-23T02:26:06.824Z,10.70
2017-09-23T02:28:34.289Z,10.70
2017-09-23T02:31:01.775Z,10.70
2017-09-23T02:33:29.632Z,10.83
2017-09-23T02:35:57.485Z,10.60
2017-09-23T02:38:25.469Z,10.63
2017-09-23T02:40:53.323Z,10.53
2017-09-23T02:43:21.174Z,11.00
2017-09-23T02:45:48.932Z,11.03
2017-09-23T02:48:16.395Z,12.47
2017-09-23T02:50:43.914Z,10.97
2017-09-23T02:53:11.411Z,11.00
2017-09-23T02:55:39.266Z,11.00
2017-09-23T02:58:06.731Z,10.67
2017-09-23T03:00:34.623Z,11.30
2017-09-23T03:03:02.083Z,11.00
2017-09-23T03:05:29.545Z,10.80
2017-09-23T03:07:57.012Z,12.03
2017-09-23T03:10:24.462Z,11.93
2017-09-23T03:12:52.890Z,12.07
2017-09-23T03:15:20.346Z,12.03
2017-09-23T03:17:47.803Z,12.40
2017-09-23T03:20:15.698Z,12.83
2017-09-23T03:22:43.157Z,11.13
2017-09-23T03:25:10.622Z,12.00
2017-09-23T03:27:38.327Z,12.23
2017-09-23T03:30:05.804Z,11.47
2017-09-23T03:32:33.666Z,12.17
2017-09-23T03:35:01.720Z,12.63
2017-09-23T03:37:29.167Z,11.83
2017-09-23T03:39:56.627Z,12.93
2017-09-23T03:42:24.387Z,12.40
2017-09-23T03:44:51.854Z,12.70
2017-09-23T03:47:19.318Z,11.70
2017-09-23T03:49:47.202Z,13.20
2017-09-23T03:52:14.654Z,12.23
2017-09-23T03:54:42.115Z,14.13
2017-09-23T03:57:09.606Z,13.60
2017-09-23T03:59:37.071Z,14.07
2017-09-23T04:02:04.527Z,14.10
2017-09-23T04:04:32.037Z,14.80
2017-09-23T04:06:59.519Z,13.67
2017-09-23T04:09:26.972Z,14.10
2017-09-23T04:11:54.646Z,14.73
2017-09-23T04:14:22.109Z,15.67
2017-09-23T04:16:49.562Z,14.30
2017-09-23T04:19:17.033Z,13.87
2017-09-23T04:21:44.496Z,15.67
2017-09-23T04:24:12.354Z,15.17
2017-09-23T04:26:39.814Z,14.40
2017-09-23T04:29:07.274Z,15.00
2017-09-23T04:31:35.437Z,13.47
2017-09-23T04:34:02.907Z,13.70
2017-09-23T04:36:30.362Z,16.27
2017-09-23T04:38:58.239Z,14.50
2017-09-23T04:41:26.091Z,16.37
2017-09-23T04:43:53.947Z,14.87
2017-09-23T04:46:21.422Z,16.57
2017-09-23T04:48:49.270Z,14.83
2017-09-23T04:51:17.126Z,15.07
2017-09-23T04:53:44.600Z,15.23
2017-09-23T04:56:12.450Z,16.93
2017-09-23T04:58:39.910Z,16.40
2017-09-23T05:01:07.799Z,15.73
2017-09-23T05:03:35.258Z,15.83
2017-09-23T05:06:02.715Z,15.87
2017-09-23T05:08:30.474Z,17.27
2017-09-23T05:10:57.934Z,16.57
2017-09-23T05:13:25.401Z,17.00
2017-09-23T05:15:53.093Z,16.03
2017-09-23T05:18:20.555Z,17.40
2017-09-23T05:20:48.021Z,16.70
2017-09-23T05:23:15.631Z,16.13
2017-09-23T05:25:43.273Z,16.70
2017-09-23T05:28:10.741Z,15.80
2017-09-23T05:30:38.194Z,16.60
2017-09-23T05:33:05.650Z,17.10
2017-09-23T05:35:33.901Z,19.43
2017-09-23T05:38:02.246Z,17.63
2017-09-23T05:40:29.702Z,19.60
2017-09-23T05:42:57.433Z,18.87
2017-09-23T05:45:24.935Z,17.77
2017-09-23T05:47:52.397Z,17.73
2017-09-23T05:50:20.246Z,17.80
2017-09-23T05:52:47.703Z,17.90
2017-09-23T05:55:15.167Z,17.40
2017-09-23T05:57:42.910Z,17.43
2017-09-23T06:00:10.365Z,18.30
2017-09-23T06:02:37.824Z,16.63
2017-09-23T06:05:05.292Z,16.20
2017-09-23T06:07:33.151Z,18.07
2017-09-23T06:10:00.601Z,17.43
2017-09-23T06:12:28.082Z,15.80
2017-09-23T06:14:55.929Z,27.93
2017-09-23T06:17:23.786Z,29.47
2017-09-23T06:19:51.365Z,24.23
2017-09-23T06:22:19.219Z,21.13
2017-09-23T06:24:47.077Z,20.43
2017-09-23T06:27:14.642Z,19.60
2017-09-23T06:29:42.498Z,31.43
2017-09-23T06:32:09.946Z,24.10
2017-09-23T06:34:37.413Z,21.57
2017-09-23T06:37:04.870Z,26.20
2017-09-23T06:39:32.329Z,20.03
2017-09-23T06:42:00.066Z,18.33
2017-09-23T06:44:27.526Z,31.97
2017-09-23T06:46:54.981Z,22.90
2017-09-23T06:49:22.477Z,33.13
2017-09-23T06:51:49.931Z,25.83
2017-09-23T06:54:17.898Z,23.43
2017-09-23T06:56:46.965Z,36.20
2017-09-23T06:59:14.446Z,21.77
2017-09-23T07:01:42.297Z,22.10
2017-09-23T07:04:10.150Z,25.40
2017-09-23T07:06:37.643Z,22.70
2017-09-23T07:09:05.109Z,23.20
2017-09-23T07:11:32.570Z,26.50
2017-09-23T07:14:00.221Z,21.50
2017-09-23T07:16:27.671Z,22.13
2017-09-23T07:18:55.142Z,19.20
2017-09-23T07:21:22.611Z,18.90
2017-09-23T07:23:50.103Z,19.23
2017-09-23T07:26:17.554Z,37.20
2017-09-23T07:28:45.006Z,40.27
2017-09-23T07:31:12.958Z,22.90
2017-09-23T07:33:40.423Z,19.90
2017-09-23T07:36:07.884Z,16.20
2017-09-23T07:38:35.370Z,15.40
2017-09-23T07:41:02.849Z,15.17
2017-09-23T07:43:30.307Z,14.50
2017-09-23T07:45:57.766Z,15.20
2017-09-23T07:48:25.453Z,14.33
2017-09-23T07:50:52.909Z,16.20
2017-09-23T07:53:20.366Z,23.40
2017-09-23T07:55:47.854Z,22.60
2017-09-23T07:58:15.711Z,18.53
2017-09-23T08:00:43.570Z,23.70
2017-09-23T08:03:11.441Z,39.40
2017-09-23T08:05:39.307Z,20.30
2017-09-23T08:08:06.773Z,22.00
2017-09-23T08:10:34.270Z,19.37
2017-09-23T08:13:01.721Z,18.00
2017-09-23T08:15:29.182Z,15.47
2017-09-23T08:17:56.680Z,16.50
2017-09-23T08:20:24.529Z,16.20
2017-09-23T08:22:51.986Z,26.27
2017-09-23T08:25:19.462Z,18.80
2017-09-23T08:27:47.314Z,26.10
2017-09-23T08:30:14.769Z,17.00
2017-09-23T08:32:42.681Z,16.40
2017-09-23T08:35:10.134Z,18.10
2017-09-23T08:37:37.595Z,17.40
2017-09-23T08:40:05.071Z,17.67
2017-09-23T08:42:32.544Z,15.80
2017-09-23T08:44:59.998Z,15.90
2017-09-23T08:47:27.758Z,16.40
2017-09-23T08:49:55.214Z,20.87
2017-09-23T08:52:22.670Z,21.07
2017-09-23T08:54:50.166Z,20.63
2017-09-23T08:57:17.629Z,19.37
2017-09-23T08:59:45.079Z,18.30
2017-09-23T09:02:13.619Z,16.70
2017-09-23T09:04:41.072Z,17.90
2017-09-23T09:07:08.522Z,17.00
2017-09-23T09:09:36.381Z,17.13
2017-09-23T09:12:03.849Z,16.50
2017-09-23T09:14:31.306Z,15.90
2017-09-23T09:16:59.058Z,13.67
2017-09-23T09:19:26.513Z,15.43
2017-09-23T09:21:53.969Z,14.07
2017-09-23T09:24:21.429Z,16.83
2017-09-23T09:26:48.881Z,32.97
2017-09-23T09:29:16.445Z,42.27
2017-09-23T09:31:43.902Z,18.50
2017-09-23T09:34:11.382Z,13.50
2017-09-23T09:36:38.969Z,14.20
2017-09-23T09:39:06.425Z,13.13
2017-09-23T09:41:33.878Z,12.50
2017-09-23T09:44:01.527Z,11.53
2017-09-23T09:46:29.005Z,11.47
2017-09-23T09:48:56.467Z,10.83
2017-09-23T09:51:23.963Z,11.30
2017-09-23T09:53:51.808Z,12.37
2017-09-23T09:56:19.272Z,13.90
2017-09-23T09:58:46.748Z,11.30
2017-09-23T10:01:14.591Z,9.23
2017-09-23T10:03:42.044Z,9.13
2017-09-23T10:06:09.798Z,9.53
2017-09-23T10:08:37.245Z,9.37
2017-09-23T10:11:04.706Z,9.13
2017-09-23T10:13:39.270Z,9.60
2017-09-23T10:16:06.786Z,9.40
2017-09-23T10:18:34.244Z,8.30
2017-09-23T10:21:01.898Z,8.87
2017-09-23T10:23:29.351Z,9.13
2017-09-23T10:25:56.805Z,8.53
2017-09-23T10:28:24.275Z,8.63
2017-09-23T10:30:51.722Z,8.27
2017-09-23T10:33:19.180Z,8.20
2017-09-23T10:35:47.182Z,7.90
2017-09-23T10:38:14.632Z,9.13
2017-09-23T10:40:42.483Z,8.63
2017-09-23T10:43:09.962Z,13.40
2017-09-23T10:45:37.424Z,22.07
2017-09-23T10:48:04.881Z,22.97
2017-09-23T10:50:32.654Z,8.63
2017-09-23T10:53:00.105Z,8.17
2017-09-23T10:55:27.562Z,7.83
2017-09-23T10:57:55.037Z,7.20
2017-09-23T11:00:22.499Z,7.33
2017-09-23T11:02:49.946Z,7.20
2017-09-23T11:05:17.417Z,7.73
2017-09-23T11:07:44.866Z,7.90
2017-09-23T11:10:12.317Z,7.77
2017-09-23T11:12:39.882Z,8.43
2017-09-23T11:15:07.335Z,7.83
2017-09-23T11:17:34.791Z,8.43
2017-09-23T11:20:02.475Z,7.40
2017-09-23T11:22:29.916Z,8.57
2017-09-23T11:24:57.369Z,7.57
2017-09-23T11:27:24.933Z,7.23
2017-09-23T11:29:52.390Z,8.60
2017-09-23T11:32:19.843Z,7.57
2017-09-23T11:34:47.303Z,7.90
2017-09-23T11:37:15.158Z,7.60
2017-09-23T11:39:42.632Z,9.73
2017-09-23T11:42:10.078Z,8.17
2017-09-23T11:44:37.531Z,7.50
2017-09-23T11:47:05.013Z,9.70
2017-09-23T11:49:32.860Z,8.13
2017-09-23T11:52:00.718Z,9.10
2017-09-23T11:54:28.603Z,9.63
2017-09-23T11:56:56.460Z,10.57
2017-09-23T11:59:24.314Z,8.63
2017-09-23T12:01:52.068Z,8.90
2017-09-23T12:04:19.531Z,8.30
2017-09-23T12:06:47.388Z,8.00
2017-09-23T12:09:14.872Z,8.47
2017-09-23T12:11:42.336Z,8.57
2017-09-23T12:14:09.807Z,9.30
2017-09-23T12:16:37.618Z,11.27
2017-09-23T12:19:05.076Z,11.60
2017-09-23T12:21:32.538Z,12.73
2017-09-23T12:24:00.421Z,13.30
2017-09-23T12:26:28.283Z,12.10
2017-09-23T12:28:56.139Z,12.33
2017-09-23T12:31:24.026Z,12.40
2017-09-23T12:33:51.587Z,13.93
2017-09-23T12:36:19.042Z,12.30
2017-09-23T12:38:46.532Z,15.10
2017-09-23T12:41:13.998Z,13.30
2017-09-23T12:43:41.455Z,13.40
2017-09-23T12:46:09.213Z,13.83
2017-09-23T12:48:36.688Z,12.67
2017-09-23T12:51:04.138Z,13.83
2017-09-23T12:53:31.631Z,13.70
2017-09-23T12:55:59.104Z,13.50
2017-09-23T12:58:26.566Z,12.13
2017-09-23T13:00:54.063Z,13.00
2017-09-23T13:03:21.522Z,10.90
2017-09-23T13:05:48.982Z,12.70
2017-09-23T13:08:16.964Z,12.30
2017-09-23T13:10:44.822Z,11.63
2017-09-23T13:13:12.691Z,12.50
2017-09-23T13:15:40.572Z,13.83
2017-09-23T13:18:08.037Z,43.40
2017-09-23T13:20:35.497Z,43.47
2017-09-23T13:23:02.965Z,40.23
2017-09-23T13:25:30.439Z,28.77
2017-09-23T13:27:58.171Z,28.80
2017-09-23T13:30:25.631Z,16.77
2017-09-23T13:32:53.090Z,16.13
2017-09-23T13:35:20.584Z,17.17
2017-09-23T13:37:48.055Z,15.03
2017-09-23T13:40:15.918Z,14.73
2017-09-23T13:42:43.447Z,16.63
2017-09-23T13:45:10.897Z,16.67
2017-09-23T13:47:38.388Z,15.97
2017-09-23T13:50:06.557Z,15.70
2017-09-23T13:52:34.015Z,13.93
2017-09-23T13:55:01.870Z,14.67
2017-09-23T13:57:29.381Z,13.20
2017-09-23T13:59:56.841Z,11.03
2017-09-23T14:02:24.294Z,19.30
2017-09-23T14:04:51.790Z,20.70
2017-09-23T14:07:19.246Z,29.63
2017-09-23T14:09:47.119Z,17.33
2017-09-23T14:12:15.274Z,15.57
2017-09-23T14:14:42.736Z,15.57
2017-09-23T14:17:10.208Z,14.93
2017-09-23T14:19:38.090Z,16.00
2017-09-23T14:22:05.546Z,13.23
2017-09-23T14:24:33.008Z,13.73
2017-09-23T14:27:00.475Z,20.60
2017-09-23T14:29:27.939Z,26.97
2017-09-23T14:31:55.398Z,43.57
2017-09-23T14:34:22.859Z,23.47
2017-09-23T14:36:50.318Z,15.40
2017-09-23T14:39:17.800Z,15.80
2017-09-23T14:41:45.670Z,14.23
2017-09-23T14:44:13.534Z,13.33
2017-09-23T14:46:41.636Z,13.93
2017-09-23T14:49:09.112Z,13.23
2017-09-23T14:51:36.611Z,13.07
2017-09-23T14:54:04.071Z,13.07
2017-09-23T14:56:31.965Z,45.40
2017-09-23T14:58:59.463Z,51.93
2017-09-23T15:01:27.242Z,64.20
2017-09-23T15:03:54.708Z,38.43
2017-09-23T15:06:22.298Z,19.53
2017-09-23T15:08:49.798Z,17.10
2017-09-23T15:11:17.262Z,16.70
2017-09-23T15:13:44.731Z,14.37
2017-09-23T15:16:12.187Z,15.30
2017-09-23T15:18:39.834Z,11.93
2017-09-23T15:21:07.306Z,12.23
2017-09-23T15:23:36.475Z,11.60
2017-09-23T15:26:04.253Z,40.70
2017-09-23T15:28:31.783Z,72.60
2017-09-23T15:31:01.676Z,37.70
2017-09-23T15:33:29.352Z,17.77
2017-09-23T15:35:59.156Z,11.17
2017-09-23T15:38:26.654Z,10.27
2017-09-23T15:40:54.136Z,8.90
2017-09-23T15:43:21.982Z,9.60
2017-09-23T15:45:49.874Z,17.10
2017-09-23T15:48:17.512Z,56.77
2017-09-23T15:50:45.367Z,12.27
2017-09-23T15:53:13.558Z,8.30
2017-09-23T15:55:41.119Z,7.83
2017-09-23T15:58:08.958Z,8.00
2017-09-23T16:00:36.411Z,8.40
2017-09-23T16:03:04.179Z,9.70
2017-09-23T16:05:31.719Z,9.57
2017-09-23T16:07:59.174Z,7.90
2017-09-23T16:10:26.962Z,7.43
2017-09-23T16:12:54.979Z,8.33
2017-09-23T16:15:22.426Z,8.30
2017-09-23T16:17:50.170Z,11.60
2017-09-23T16:20:17.678Z,31.33
2017-09-23T16:22:47.898Z,14.27
2017-09-23T16:33:59.249Z,8.70
2017-09-23T16:36:27.609Z,9.40
2017-09-23T17:15:12.927Z,13.40
2017-09-23T17:17:40.784Z,14.47
2017-09-23T17:20:08.636Z,19.67
2017-09-23T17:22:36.122Z,18.50
2017-09-23T17:25:03.599Z,17.03
2017-09-23T17:27:31.060Z,15.90
2017-09-23T17:29:58.531Z,16.10
2017-09-23T17:32:26.191Z,16.20
2017-09-23T17:34:53.647Z,15.73
2017-09-23T17:37:21.114Z,16.33
2017-09-23T17:39:48.588Z,16.40
2017-09-23T17:42:16.507Z,16.67
2017-09-23T17:44:43.970Z,16.40
2017-09-23T17:47:11.450Z,18.90
2017-09-23T17:49:38.938Z,16.60
2017-09-23T17:52:06.795Z,15.27
2017-09-23T17:54:34.652Z,15.03
2017-09-23T17:57:02.552Z,16.40
2017-09-23T17:59:30.019Z,36.90
2017-09-23T18:01:57.567Z,44.83
2017-09-23T18:04:25.067Z,65.70
2017-09-23T18:06:52.541Z,38.83
2017-09-23T18:09:20.126Z,28.60
2017-09-23T18:11:48.613Z,27.00
2017-09-23T18:14:16.078Z,25.10
2017-09-23T18:16:43.806Z,74.47
2017-09-23T18:19:11.659Z,27.80
2017-09-23T18:21:39.667Z,19.23
2017-09-23T18:24:07.169Z,16.70
2017-09-23T18:26:34.628Z,17.80
2017-09-23T18:29:02.086Z,24.57
2017-09-23T18:31:29.547Z,31.67
2017-09-23T18:33:57.403Z,28.80
2017-09-23T18:36:24.891Z,23.23
2017-09-23T18:38:52.351Z,19.70
2017-09-23T18:41:19.922Z,21.67
2017-09-23T18:43:47.727Z,18.67
2017-09-23T18:46:15.187Z,18.30
2017-09-23T18:48:42.646Z,19.10
2017-09-23T18:51:10.139Z,20.53
2017-09-23T18:53:37.607Z,19.00
2017-09-23T18:56:05.107Z,18.00
2017-09-23T18:58:32.568Z,17.10
2017-09-23T19:01:00.450Z,16.43
2017-09-23T19:03:27.987Z,18.00
2017-09-23T19:05:55.470Z,17.33
2017-09-23T19:08:23.517Z,17.93
2017-09-23T19:10:51.164Z,17.47
2017-09-23T19:13:18.796Z,17.53
2017-09-23T19:15:46.476Z,61.03
2017-09-23T19:18:14.048Z,84.93
2017-09-23T19:20:41.658Z,94.67
2017-09-23T19:23:09.301Z,35.30
2017-09-23T19:25:36.830Z,29.53
2017-09-23T19:28:04.813Z,24.47
2017-09-23T19:30:32.420Z,26.70
2017-09-23T19:33:00.000Z,23.13
2017-09-23T19:35:27.592Z,27.37
2017-09-23T19:37:55.128Z,34.43
2017-09-23T19:40:23.038Z,33.43
2017-09-23T19:42:50.595Z,25.23
2017-09-23T19:45:18.209Z,21.30
2017-09-23T19:47:46.094Z,20.53
2017-09-23T19:50:14.047Z,21.07
2017-09-23T19:52:41.927Z,19.30
2017-09-23T19:55:09.832Z,20.43
2017-09-23T19:57:37.323Z,19.30
2017-09-23T20:00:05.215Z,21.90
2017-09-23T20:02:33.899Z,26.07
2017-09-23T20:05:01.770Z,23.17
2017-09-23T20:07:29.254Z,24.63
2017-09-23T20:09:56.935Z,41.47
2017-09-23T20:12:24.423Z,70.57
2017-09-23T20:14:52.327Z,43.40
2017-09-23T20:17:19.846Z,24.63
2017-09-23T20:19:48.564Z,20.70
2017-09-23T20:22:16.043Z,19.03
2017-09-23T20:24:43.732Z,17.77
2017-09-23T20:27:11.201Z,18.57
2017-09-23T20:29:39.055Z,18.87
2017-09-23T20:32:06.807Z,16.97
2017-09-23T20:34:34.269Z,17.93
2017-09-23T20:37:01.722Z,17.47
2017-09-23T20:39:29.191Z,19.33
2017-09-23T20:41:57.052Z,24.50
2017-09-23T20:44:24.838Z,22.47
2017-09-23T20:46:52.312Z,20.90
2017-09-23T20:49:19.770Z,20.10
2017-09-23T20:51:47.260Z,20.80
2017-09-23T20:54:14.723Z,19.53
2017-09-23T20:56:42.189Z,19.57
2017-09-23T20:59:09.784Z,16.70
2017-09-23T21:01:37.243Z,19.17
2017-09-23T21:04:04.707Z,72.00
2017-09-23T21:06:32.220Z,31.23
2017-09-23T21:09:00.089Z,30.00
2017-09-23T21:11:27.946Z,22.87
2017-09-23T21:13:55.911Z,76.97
2017-09-23T21:16:23.374Z,112.03
2017-09-23T21:18:51.228Z,42.57
2017-09-23T21:21:18.719Z,53.07
2017-09-23T21:23:46.186Z,48.93
2017-09-23T21:26:13.651Z,74.67
2017-09-23T21:28:41.118Z,23.57
2017-09-23T21:31:08.582Z,20.30
2017-09-23T21:33:36.099Z,19.10
2017-09-23T21:36:03.558Z,19.00
2017-09-23T21:38:31.018Z,17.80
2017-09-23T21:40:58.519Z,19.67
2017-09-23T21:43:25.992Z,17.10
2017-09-23T21:45:53.856Z,19.43
2017-09-23T21:48:21.759Z,18.60
2017-09-23T21:50:49.218Z,18.43
2017-09-23T21:53:16.679Z,18.60
2017-09-23T21:55:44.147Z,34.53
2017-09-23T21:58:11.607Z,20.53
2017-09-23T22:00:39.099Z,19.23
2017-09-23T22:03:06.962Z,17.33
2017-09-23T22:05:34.813Z,18.50
2017-09-23T22:08:02.392Z,19.77
2017-09-23T22:10:30.251Z,20.17
2017-09-23T22:12:58.107Z,20.00
2017-09-23T22:15:26.265Z,19.90
2017-09-23T22:17:53.735Z,19.33
2017-09-23T22:20:21.191Z,18.13
2017-09-23T22:22:49.063Z,18.20
2017-09-23T22:25:16.919Z,18.10
2017-09-23T22:27:44.784Z,18.63
2017-09-23T22:30:12.374Z,19.13
2017-09-23T22:32:39.840Z,19.13
2017-09-23T22:35:07.307Z,17.97
2017-09-23T22:37:34.816Z,19.20
2017-09-23T22:40:02.669Z,18.37
2017-09-23T22:42:30.131Z,17.97
2017-09-23T22:44:57.590Z,54.50
2017-09-23T22:47:25.489Z,141.70
2017-09-23T22:49:52.957Z,115.23
2017-09-23T22:52:20.422Z,67.27
2017-09-23T22:54:48.212Z,26.83
2017-09-23T22:57:15.670Z,21.37
2017-09-23T22:59:43.131Z,25.20
2017-09-23T23:02:10.594Z,37.33
2017-09-23T23:04:38.444Z,100.57
2017-09-23T23:07:05.911Z,92.60
2017-09-23T23:09:33.367Z,40.23
2017-09-23T23:12:01.237Z,58.57
2017-09-23T23:14:29.094Z,53.30
2017-09-23T23:16:56.555Z,29.10
2017-09-23T23:19:24.711Z,24.00
2017-09-23T23:21:52.175Z,46.77
2017-09-23T23:24:19.630Z,31.57
2017-09-23T23:26:47.377Z,22.53
2017-09-23T23:29:14.838Z,20.97
2017-09-23T23:31:42.302Z,23.47
2017-09-23T23:34:10.047Z,45.93
2017-09-23T23:36:37.506Z,38.10
2017-09-23T23:39:04.971Z,35.93
2017-09-23T23:41:32.827Z,24.57
2017-09-23T23:44:00.283Z,23.60
2017-09-23T23:46:27.755Z,24.50
2017-09-23T23:48:55.226Z,23.23
2017-09-23T23:51:23.204Z,21.70
2017-09-23T23:53:50.667Z,20.23
2017-09-23T23:56:18.314Z,38.53
2017-09-23T23:58:45.780Z,36.70
